sensor_id;sensor_type;location;lat;lon;timestamp;P1;durP1;ratioP1;P2;durP2;ratioP2
60354;SDS011;46198;51.464;-0.066;2022-08-01T00:00:07;3.08;;;2.22;;
60354;SDS011;46198;51.464;-0.066;2022-08-01T00:02:37;3.20;;;2.30;;
60354;SDS011;46198;51.464;-0.066;2022-08-01T00:05:06;2.85;;;2.33;;
60354;SDS011;46198;51.464;-0.066;2022-08-01T00:07:38;2.30;;;2.10;;
60354;SDS011;46198;51.464;-0.066;2022-08-01T00:10:07;4.85;;;2.58;;
60354;SDS011;46198;51.464;-0.066;2022-08-01T00:12:37;3.25;;;2.20;;
60354;SDS011;46198;51.464;-0.066;2022-08-01T00:15:06;3.53;;;2.58;;
60354;SDS011;46198;51.464;-0.066;2022-08-01T00:17:36;3.33;;;2.38;;
60354;SDS011;46198;51.464;-0.066;2022-08-01T00:20:05;3.20;;;2.60;;
60354;SDS011;46198;51.464;-0.066;2022-08-01T00:22:35;2.42;;;1.88;;
60354;SDS011;46198;51.464;-0.066;2022-08-01T00:25:05;3.63;;;2.33;;
60354;SDS011;46198;51.464;-0.066;2022-08-01T00:27:34;3.10;;;2.50;;
60354;SDS011;46198;51.464;-0.066;2022-08-01T00:30:03;3.63;;;2.42;;
60354;SDS011;46198;51.464;-0.066;2022-08-01T00:32:39;4.05;;;2.42;;
60354;SDS011;46198;51.464;-0.066;2022-08-01T00:35:08;2.13;;;1.90;;
60354;SDS011;46198;51.464;-0.066;2022-08-01T00:37:36;2.40;;;2.20;;
60354;SDS011;46198;51.464;-0.066;2022-08-01T00:40:06;2.55;;;2.30;;
60354;SDS011;46198;51.464;-0.066;2022-08-01T00:42:35;3.63;;;2.40;;
60354;SDS011;46198;51.464;-0.066;2022-08-01T00:45:09;3.33;;;2.20;;
60354;SDS011;46198;51.464;-0.066;2022-08-01T00:47:37;2.72;;;2.47;;
60354;SDS011;46198;51.464;-0.066;2022-08-01T00:50:06;4.32;;;2.60;;
60354;SDS011;46198;51.464;-0.066;2022-08-01T00:52:35;4.75;;;2.25;;
60354;SDS011;46198;51.464;-0.066;2022-08-01T00:55:06;3.08;;;2.00;;
60354;SDS011;46198;51.464;-0.066;2022-08-01T00:57:40;3.88;;;2.30;;
60354;SDS011;46198;51.464;-0.066;2022-08-01T01:00:28;2.78;;;2.00;;
60354;SDS011;46198;51.464;-0.066;2022-08-01T01:03:00;2.97;;;2.30;;
60354;SDS011;46198;51.464;-0.066;2022-08-01T01:05:28;2.40;;;2.20;;
60354;SDS011;46198;51.464;-0.066;2022-08-01T01:08:04;3.50;;;2.40;;
60354;SDS011;46198;51.464;-0.066;2022-08-01T01:10:40;2.40;;;2.20;;
60354;SDS011;46198;51.464;-0.066;2022-08-01T01:13:16;2.85;;;2.10;;
60354;SDS011;46198;51.464;-0.066;2022-08-01T01:15:55;2.95;;;2.33;;
60354;SDS011;46198;51.464;-0.066;2022-08-01T01:18:29;3.80;;;2.33;;
60354;SDS011;46198;51.464;-0.066;2022-08-01T01:21:05;3.25;;;2.50;;
60354;SDS011;46198;51.464;-0.066;2022-08-01T01:23:45;3.30;;;2.72;;
60354;SDS011;46198;51.464;-0.066;2022-08-01T01:26:24;2.28;;;2.08;;
60354;SDS011;46198;51.464;-0.066;2022-08-01T01:29:02;2.47;;;2.20;;
60354;SDS011;46198;51.464;-0.066;2022-08-01T01:31:36;3.42;;;1.73;;
60354;SDS011;46198;51.464;-0.066;2022-08-01T01:34:11;2.63;;;1.95;;
60354;SDS011;46198;51.464;-0.066;2022-08-01T01:36:41;2.42;;;2.05;;
60354;SDS011;46198;51.464;-0.066;2022-08-01T01:39:11;2.55;;;1.88;;
60354;SDS011;46198;51.464;-0.066;2022-08-01T01:41:41;2.50;;;2.20;;
60354;SDS011;46198;51.464;-0.066;2022-08-01T01:44:13;2.45;;;2.20;;
60354;SDS011;46198;51.464;-0.066;2022-08-01T01:46:43;2.92;;;2.50;;
60354;SDS011;46198;51.464;-0.066;2022-08-01T01:49:13;2.75;;;1.92;;
60354;SDS011;46198;51.464;-0.066;2022-08-01T01:51:44;2.70;;;1.88;;
60354;SDS011;46198;51.464;-0.066;2022-08-01T01:54:28;2.30;;;2.00;;
60354;SDS011;46198;51.464;-0.066;2022-08-01T01:57:00;3.65;;;2.03;;
60354;SDS011;46198;51.464;-0.066;2022-08-01T01:59:32;3.88;;;1.95;;
60354;SDS011;46198;51.464;-0.066;2022-08-01T02:02:04;4.38;;;2.30;;
60354;SDS011;46198;51.464;-0.066;2022-08-01T02:04:35;3.63;;;2.13;;
60354;SDS011;46198;51.464;-0.066;2022-08-01T02:07:05;3.63;;;2.20;;
60354;SDS011;46198;51.464;-0.066;2022-08-01T02:09:37;2.30;;;1.95;;
60354;SDS011;46198;51.464;-0.066;2022-08-01T02:12:07;2.85;;;2.15;;
60354;SDS011;46198;51.464;-0.066;2022-08-01T02:14:40;2.08;;;1.70;;
60354;SDS011;46198;51.464;-0.066;2022-08-01T02:17:08;2.90;;;2.53;;
60354;SDS011;46198;51.464;-0.066;2022-08-01T02:19:38;3.35;;;2.05;;
60354;SDS011;46198;51.464;-0.066;2022-08-01T02:22:09;3.15;;;1.90;;
60354;SDS011;46198;51.464;-0.066;2022-08-01T02:24:39;4.00;;;1.95;;
60354;SDS011;46198;51.464;-0.066;2022-08-01T02:27:11;4.07;;;2.28;;
60354;SDS011;46198;51.464;-0.066;2022-08-01T02:29:45;3.70;;;2.28;;
60354;SDS011;46198;51.464;-0.066;2022-08-01T02:32:19;2.92;;;2.20;;
60354;SDS011;46198;51.464;-0.066;2022-08-01T02:34:52;2.58;;;2.10;;
60354;SDS011;46198;51.464;-0.066;2022-08-01T02:37:24;2.40;;;2.20;;
60354;SDS011;46198;51.464;-0.066;2022-08-01T02:39:54;1.80;;;1.70;;
60354;SDS011;46198;51.464;-0.066;2022-08-01T02:42:24;4.15;;;2.97;;
60354;SDS011;46198;51.464;-0.066;2022-08-01T02:44:56;2.30;;;1.90;;
60354;SDS011;46198;51.464;-0.066;2022-08-01T02:47:25;2.00;;;1.65;;
60354;SDS011;46198;51.464;-0.066;2022-08-01T02:49:55;2.10;;;1.85;;
60354;SDS011;46198;51.464;-0.066;2022-08-01T02:52:25;2.67;;;2.00;;
60354;SDS011;46198;51.464;-0.066;2022-08-01T02:54:55;5.20;;;2.08;;
60354;SDS011;46198;51.464;-0.066;2022-08-01T02:57:25;2.38;;;2.17;;
60354;SDS011;46198;51.464;-0.066;2022-08-01T03:00:16;2.78;;;2.10;;
60354;SDS011;46198;51.464;-0.066;2022-08-01T03:02:49;3.38;;;2.20;;
60354;SDS011;46198;51.464;-0.066;2022-08-01T03:05:21;2.90;;;2.38;;
60354;SDS011;46198;51.464;-0.066;2022-08-01T03:07:51;3.53;;;2.35;;
60354;SDS011;46198;51.464;-0.066;2022-08-01T03:10:29;3.50;;;2.03;;
60354;SDS011;46198;51.464;-0.066;2022-08-01T03:12:59;2.88;;;2.35;;
60354;SDS011;46198;51.464;-0.066;2022-08-01T03:15:30;2.47;;;2.10;;
60354;SDS011;46198;51.464;-0.066;2022-08-01T03:18:00;2.47;;;1.88;;
60354;SDS011;46198;51.464;-0.066;2022-08-01T03:23:00;2.30;;;2.10;;
60354;SDS011;46198;51.464;-0.066;2022-08-01T03:25:30;4.43;;;2.80;;
60354;SDS011;46198;51.464;-0.066;2022-08-01T03:28:02;3.85;;;2.42;;
60354;SDS011;46198;51.464;-0.066;2022-08-01T03:30:33;2.72;;;2.33;;
60354;SDS011;46198;51.464;-0.066;2022-08-01T03:33:04;5.63;;;2.75;;
60354;SDS011;46198;51.464;-0.066;2022-08-01T03:35:33;3.17;;;2.53;;
60354;SDS011;46198;51.464;-0.066;2022-08-01T03:38:04;3.72;;;2.47;;
60354;SDS011;46198;51.464;-0.066;2022-08-01T03:40:43;4.50;;;2.40;;
60354;SDS011;46198;51.464;-0.066;2022-08-01T03:43:17;4.47;;;2.75;;
60354;SDS011;46198;51.464;-0.066;2022-08-01T03:45:51;4.93;;;2.72;;
60354;SDS011;46198;51.464;-0.066;2022-08-01T03:48:22;3.58;;;2.70;;
60354;SDS011;46198;51.464;-0.066;2022-08-01T03:50:56;3.35;;;2.58;;
60354;SDS011;46198;51.464;-0.066;2022-08-01T03:53:28;4.97;;;2.63;;
60354;SDS011;46198;51.464;-0.066;2022-08-01T03:55:58;2.65;;;2.42;;
60354;SDS011;46198;51.464;-0.066;2022-08-01T03:58:29;4.43;;;2.95;;
60354;SDS011;46198;51.464;-0.066;2022-08-01T04:01:01;2.65;;;2.22;;
60354;SDS011;46198;51.464;-0.066;2022-08-01T04:03:30;3.17;;;2.20;;
60354;SDS011;46198;51.464;-0.066;2022-08-01T04:06:08;3.67;;;2.13;;
60354;SDS011;46198;51.464;-0.066;2022-08-01T04:08:37;2.00;;;1.83;;
60354;SDS011;46198;51.464;-0.066;2022-08-01T04:11:09;3.28;;;2.42;;
60354;SDS011;46198;51.464;-0.066;2022-08-01T04:13:37;3.17;;;1.83;;
60354;SDS011;46198;51.464;-0.066;2022-08-01T04:16:11;3.58;;;2.33;;
60354;SDS011;46198;51.464;-0.066;2022-08-01T04:18:39;3.17;;;2.40;;
60354;SDS011;46198;51.464;-0.066;2022-08-01T04:21:07;2.85;;;2.13;;
60354;SDS011;46198;51.464;-0.066;2022-08-01T04:23:35;2.60;;;2.40;;
60354;SDS011;46198;51.464;-0.066;2022-08-01T04:26:06;3.22;;;2.30;;
60354;SDS011;46198;51.464;-0.066;2022-08-01T04:31:06;4.63;;;2.40;;
60354;SDS011;46198;51.464;-0.066;2022-08-01T04:33:40;2.85;;;2.55;;
60354;SDS011;46198;51.464;-0.066;2022-08-01T04:36:12;2.45;;;2.25;;
60354;SDS011;46198;51.464;-0.066;2022-08-01T04:38:42;3.00;;;2.55;;
60354;SDS011;46198;51.464;-0.066;2022-08-01T04:41:13;2.58;;;2.33;;
60354;SDS011;46198;51.464;-0.066;2022-08-01T04:43:43;4.47;;;2.47;;
60354;SDS011;46198;51.464;-0.066;2022-08-01T04:46:11;3.65;;;2.63;;
60354;SDS011;46198;51.464;-0.066;2022-08-01T04:48:42;3.40;;;2.85;;
60354;SDS011;46198;51.464;-0.066;2022-08-01T04:51:11;5.53;;;2.60;;
60354;SDS011;46198;51.464;-0.066;2022-08-01T04:53:41;2.90;;;2.40;;
60354;SDS011;46198;51.464;-0.066;2022-08-01T04:56:10;3.10;;;2.60;;
60354;SDS011;46198;51.464;-0.066;2022-08-01T04:58:39;4.17;;;2.93;;
60354;SDS011;46198;51.464;-0.066;2022-08-01T05:01:08;4.03;;;2.67;;
60354;SDS011;46198;51.464;-0.066;2022-08-01T05:03:37;3.00;;;2.35;;
60354;SDS011;46198;51.464;-0.066;2022-08-01T05:06:06;4.07;;;2.67;;
60354;SDS011;46198;51.464;-0.066;2022-08-01T05:08:34;4.93;;;2.65;;
60354;SDS011;46198;51.464;-0.066;2022-08-01T05:11:03;3.08;;;2.38;;
60354;SDS011;46198;51.464;-0.066;2022-08-01T05:13:32;4.85;;;2.13;;
60354;SDS011;46198;51.464;-0.066;2022-08-01T05:16:00;3.03;;;2.45;;
60354;SDS011;46198;51.464;-0.066;2022-08-01T05:18:30;10.18;;;2.92;;
60354;SDS011;46198;51.464;-0.066;2022-08-01T05:20:58;5.32;;;2.72;;
60354;SDS011;46198;51.464;-0.066;2022-08-01T05:23:27;3.90;;;2.80;;
60354;SDS011;46198;51.464;-0.066;2022-08-01T05:26:09;4.53;;;3.00;;
60354;SDS011;46198;51.464;-0.066;2022-08-01T05:28:40;3.67;;;2.67;;
60354;SDS011;46198;51.464;-0.066;2022-08-01T05:31:08;6.00;;;2.97;;
60354;SDS011;46198;51.464;-0.066;2022-08-01T05:33:36;3.13;;;2.75;;
60354;SDS011;46198;51.464;-0.066;2022-08-01T05:36:05;4.43;;;2.83;;
60354;SDS011;46198;51.464;-0.066;2022-08-01T05:38:34;4.43;;;2.75;;
60354;SDS011;46198;51.464;-0.066;2022-08-01T05:41:02;5.28;;;3.13;;
60354;SDS011;46198;51.464;-0.066;2022-08-01T05:43:30;5.20;;;3.13;;
60354;SDS011;46198;51.464;-0.066;2022-08-01T05:45:58;4.10;;;2.50;;
60354;SDS011;46198;51.464;-0.066;2022-08-01T05:48:27;3.92;;;2.85;;
60354;SDS011;46198;51.464;-0.066;2022-08-01T05:50:56;5.88;;;3.10;;
60354;SDS011;46198;51.464;-0.066;2022-08-01T05:53:25;3.63;;;2.60;;
60354;SDS011;46198;51.464;-0.066;2022-08-01T05:55:54;5.78;;;3.53;;
60354;SDS011;46198;51.464;-0.066;2022-08-01T05:58:23;4.40;;;2.92;;
60354;SDS011;46198;51.464;-0.066;2022-08-01T06:00:51;5.18;;;2.92;;
60354;SDS011;46198;51.464;-0.066;2022-08-01T06:03:19;5.07;;;3.20;;
60354;SDS011;46198;51.464;-0.066;2022-08-01T06:05:47;5.43;;;3.00;;
60354;SDS011;46198;51.464;-0.066;2022-08-01T06:08:16;5.80;;;3.30;;
60354;SDS011;46198;51.464;-0.066;2022-08-01T06:10:44;8.30;;;2.95;;
60354;SDS011;46198;51.464;-0.066;2022-08-01T06:13:13;4.90;;;3.35;;
60354;SDS011;46198;51.464;-0.066;2022-08-01T06:15:42;3.42;;;2.97;;
60354;SDS011;46198;51.464;-0.066;2022-08-01T06:18:10;4.70;;;2.83;;
60354;SDS011;46198;51.464;-0.066;2022-08-01T06:20:38;6.85;;;3.25;;
60354;SDS011;46198;51.464;-0.066;2022-08-01T06:23:06;4.85;;;3.53;;
60354;SDS011;46198;51.464;-0.066;2022-08-01T06:25:54;5.75;;;3.85;;
60354;SDS011;46198;51.464;-0.066;2022-08-01T06:28:25;5.85;;;3.30;;
60354;SDS011;46198;51.464;-0.066;2022-08-01T06:30:54;7.65;;;3.22;;
60354;SDS011;46198;51.464;-0.066;2022-08-01T06:33:22;6.20;;;3.53;;
60354;SDS011;46198;51.464;-0.066;2022-08-01T06:35:50;5.47;;;3.38;;
60354;SDS011;46198;51.464;-0.066;2022-08-01T06:38:18;4.47;;;3.25;;
60354;SDS011;46198;51.464;-0.066;2022-08-01T06:40:46;5.65;;;2.88;;
60354;SDS011;46198;51.464;-0.066;2022-08-01T06:43:15;6.97;;;3.25;;
60354;SDS011;46198;51.464;-0.066;2022-08-01T06:45:44;6.93;;;3.47;;
60354;SDS011;46198;51.464;-0.066;2022-08-01T06:48:12;6.57;;;3.60;;
60354;SDS011;46198;51.464;-0.066;2022-08-01T06:50:41;3.70;;;3.03;;
60354;SDS011;46198;51.464;-0.066;2022-08-01T06:53:09;7.10;;;3.40;;
60354;SDS011;46198;51.464;-0.066;2022-08-01T06:55:37;6.82;;;3.70;;
60354;SDS011;46198;51.464;-0.066;2022-08-01T06:58:05;4.28;;;3.20;;
60354;SDS011;46198;51.464;-0.066;2022-08-01T07:00:34;8.05;;;3.40;;
60354;SDS011;46198;51.464;-0.066;2022-08-01T07:03:04;6.75;;;3.20;;
60354;SDS011;46198;51.464;-0.066;2022-08-01T07:05:32;5.97;;;3.42;;
60354;SDS011;46198;51.464;-0.066;2022-08-01T07:08:00;5.38;;;3.10;;
60354;SDS011;46198;51.464;-0.066;2022-08-01T07:10:28;6.10;;;3.17;;
60354;SDS011;46198;51.464;-0.066;2022-08-01T07:12:56;6.45;;;3.35;;
60354;SDS011;46198;51.464;-0.066;2022-08-01T07:15:25;9.35;;;3.65;;
60354;SDS011;46198;51.464;-0.066;2022-08-01T07:17:53;5.97;;;3.55;;
60354;SDS011;46198;51.464;-0.066;2022-08-01T07:20:25;7.88;;;3.50;;
60354;SDS011;46198;51.464;-0.066;2022-08-01T07:22:53;3.92;;;3.30;;
60354;SDS011;46198;51.464;-0.066;2022-08-01T07:25:22;5.85;;;3.70;;
60354;SDS011;46198;51.464;-0.066;2022-08-01T07:27:50;8.15;;;3.60;;
60354;SDS011;46198;51.464;-0.066;2022-08-01T07:30:18;5.20;;;4.05;;
60354;SDS011;46198;51.464;-0.066;2022-08-01T07:32:46;6.13;;;3.78;;
60354;SDS011;46198;51.464;-0.066;2022-08-01T07:35:17;10.32;;;4.43;;
60354;SDS011;46198;51.464;-0.066;2022-08-01T07:37:46;4.03;;;3.25;;
60354;SDS011;46198;51.464;-0.066;2022-08-01T07:40:18;5.13;;;4.20;;
60354;SDS011;46198;51.464;-0.066;2022-08-01T07:45:46;7.13;;;3.88;;
60354;SDS011;46198;51.464;-0.066;2022-08-01T07:48:15;6.03;;;4.18;;
60354;SDS011;46198;51.464;-0.066;2022-08-01T07:50:44;7.15;;;4.13;;
60354;SDS011;46198;51.464;-0.066;2022-08-01T07:53:14;8.40;;;3.63;;
60354;SDS011;46198;51.464;-0.066;2022-08-01T07:55:43;11.93;;;3.65;;
60354;SDS011;46198;51.464;-0.066;2022-08-01T07:58:13;3.93;;;3.53;;
60354;SDS011;46198;51.464;-0.066;2022-08-01T08:00:41;4.78;;;3.75;;
60354;SDS011;46198;51.464;-0.066;2022-08-01T08:03:10;5.55;;;3.42;;
60354;SDS011;46198;51.464;-0.066;2022-08-01T08:05:38;5.68;;;3.67;;
60354;SDS011;46198;51.464;-0.066;2022-08-01T08:08:26;6.75;;;4.10;;
60354;SDS011;46198;51.464;-0.066;2022-08-01T08:10:54;8.57;;;4.47;;
60354;SDS011;46198;51.464;-0.066;2022-08-01T08:13:22;4.65;;;3.90;;
60354;SDS011;46198;51.464;-0.066;2022-08-01T08:15:51;5.35;;;3.65;;
60354;SDS011;46198;51.464;-0.066;2022-08-01T08:18:19;4.22;;;3.38;;
60354;SDS011;46198;51.464;-0.066;2022-08-01T08:20:47;6.43;;;3.72;;
60354;SDS011;46198;51.464;-0.066;2022-08-01T08:23:15;5.18;;;3.67;;
60354;SDS011;46198;51.464;-0.066;2022-08-01T08:26:10;4.35;;;3.15;;
60354;SDS011;46198;51.464;-0.066;2022-08-01T08:28:39;4.65;;;4.05;;
60354;SDS011;46198;51.464;-0.066;2022-08-01T08:31:07;6.35;;;3.55;;
60354;SDS011;46198;51.464;-0.066;2022-08-01T08:33:51;7.13;;;3.85;;
60354;SDS011;46198;51.464;-0.066;2022-08-01T08:36:19;5.97;;;3.58;;
60354;SDS011;46198;51.464;-0.066;2022-08-01T08:38:57;3.80;;;3.40;;
60354;SDS011;46198;51.464;-0.066;2022-08-01T08:41:30;5.13;;;3.83;;
60354;SDS011;46198;51.464;-0.066;2022-08-01T08:44:04;5.30;;;3.85;;
60354;SDS011;46198;51.464;-0.066;2022-08-01T08:46:38;5.57;;;3.70;;
60354;SDS011;46198;51.464;-0.066;2022-08-01T08:49:15;7.25;;;3.88;;
60354;SDS011;46198;51.464;-0.066;2022-08-01T08:51:47;7.35;;;3.60;;
60354;SDS011;46198;51.464;-0.066;2022-08-01T08:54:19;4.90;;;3.38;;
60354;SDS011;46198;51.464;-0.066;2022-08-01T08:56:58;6.22;;;3.85;;
60354;SDS011;46198;51.464;-0.066;2022-08-01T08:59:29;5.30;;;4.00;;
60354;SDS011;46198;51.464;-0.066;2022-08-01T09:01:58;4.53;;;3.60;;
60354;SDS011;46198;51.464;-0.066;2022-08-01T09:04:27;5.22;;;3.50;;
60354;SDS011;46198;51.464;-0.066;2022-08-01T09:06:55;3.47;;;3.13;;
60354;SDS011;46198;51.464;-0.066;2022-08-01T09:09:23;7.15;;;3.83;;
60354;SDS011;46198;51.464;-0.066;2022-08-01T09:11:51;5.15;;;3.47;;
60354;SDS011;46198;51.464;-0.066;2022-08-01T09:14:25;4.60;;;3.50;;
60354;SDS011;46198;51.464;-0.066;2022-08-01T09:17:01;6.13;;;3.47;;
60354;SDS011;46198;51.464;-0.066;2022-08-01T09:19:36;5.28;;;3.03;;
60354;SDS011;46198;51.464;-0.066;2022-08-01T09:22:07;6.00;;;3.50;;
60354;SDS011;46198;51.464;-0.066;2022-08-01T09:24:37;3.83;;;3.08;;
60354;SDS011;46198;51.464;-0.066;2022-08-01T09:27:18;3.70;;;3.17;;
60354;SDS011;46198;51.464;-0.066;2022-08-01T09:29:52;5.35;;;3.25;;
60354;SDS011;46198;51.464;-0.066;2022-08-01T09:32:29;4.22;;;3.03;;
60354;SDS011;46198;51.464;-0.066;2022-08-01T09:38:11;4.50;;;2.88;;
60354;SDS011;46198;51.464;-0.066;2022-08-01T09:40:44;4.85;;;2.28;;
60354;SDS011;46198;51.464;-0.066;2022-08-01T09:43:17;3.78;;;2.40;;
60354;SDS011;46198;51.464;-0.066;2022-08-01T09:45:47;3.90;;;2.67;;
60354;SDS011;46198;51.464;-0.066;2022-08-01T09:48:19;3.28;;;2.67;;
60354;SDS011;46198;51.464;-0.066;2022-08-01T09:50:55;4.50;;;2.53;;
60354;SDS011;46198;51.464;-0.066;2022-08-01T09:53:39;4.22;;;2.90;;
60354;SDS011;46198;51.464;-0.066;2022-08-01T09:56:17;3.95;;;2.38;;
60354;SDS011;46198;51.464;-0.066;2022-08-01T09:58:50;4.07;;;2.53;;
60354;SDS011;46198;51.464;-0.066;2022-08-01T10:01:26;2.78;;;2.40;;
60354;SDS011;46198;51.464;-0.066;2022-08-01T10:04:04;5.55;;;2.50;;
60354;SDS011;46198;51.464;-0.066;2022-08-01T10:06:36;4.68;;;2.97;;
60354;SDS011;46198;51.464;-0.066;2022-08-01T10:09:04;5.97;;;2.60;;
60354;SDS011;46198;51.464;-0.066;2022-08-01T10:11:33;3.50;;;2.67;;
60354;SDS011;46198;51.464;-0.066;2022-08-01T10:14:06;3.13;;;2.42;;
60354;SDS011;46198;51.464;-0.066;2022-08-01T10:16:37;3.65;;;2.38;;
60354;SDS011;46198;51.464;-0.066;2022-08-01T10:19:07;3.20;;;2.50;;
60354;SDS011;46198;51.464;-0.066;2022-08-01T10:21:40;5.05;;;2.15;;
60354;SDS011;46198;51.464;-0.066;2022-08-01T10:24:25;3.08;;;2.78;;
60354;SDS011;46198;51.464;-0.066;2022-08-01T10:26:56;5.30;;;2.50;;
60354;SDS011;46198;51.464;-0.066;2022-08-01T10:29:39;5.70;;;2.53;;
60354;SDS011;46198;51.464;-0.066;2022-08-01T10:32:27;3.20;;;2.10;;
60354;SDS011;46198;51.464;-0.066;2022-08-01T10:34:55;4.30;;;2.37;;
60354;SDS011;46198;51.464;-0.066;2022-08-01T10:37:24;4.53;;;2.22;;
60354;SDS011;46198;51.464;-0.066;2022-08-01T10:39:52;4.47;;;2.60;;
60354;SDS011;46198;51.464;-0.066;2022-08-01T10:42:43;2.20;;;2.00;;
60354;SDS011;46198;51.464;-0.066;2022-08-01T10:45:13;9.80;;;2.45;;
60354;SDS011;46198;51.464;-0.066;2022-08-01T10:47:47;4.00;;;1.90;;
60354;SDS011;46198;51.464;-0.066;2022-08-01T10:50:21;3.55;;;2.03;;
60354;SDS011;46198;51.464;-0.066;2022-08-01T10:53:11;3.65;;;1.92;;
60354;SDS011;46198;51.464;-0.066;2022-08-01T10:55:52;2.45;;;1.70;;
60354;SDS011;46198;51.464;-0.066;2022-08-01T10:58:28;2.95;;;1.60;;
60354;SDS011;46198;51.464;-0.066;2022-08-01T11:01:13;2.92;;;2.03;;
60354;SDS011;46198;51.464;-0.066;2022-08-01T11:03:45;2.08;;;1.40;;
60354;SDS011;46198;51.464;-0.066;2022-08-01T11:06:34;2.42;;;1.83;;
60354;SDS011;46198;51.464;-0.066;2022-08-01T11:09:23;3.88;;;2.05;;
60354;SDS011;46198;51.464;-0.066;2022-08-01T11:12:06;1.88;;;1.75;;
60354;SDS011;46198;51.464;-0.066;2022-08-01T11:18:00;3.33;;;2.08;;
60354;SDS011;46198;51.464;-0.066;2022-08-01T11:20:32;3.80;;;2.10;;
60354;SDS011;46198;51.464;-0.066;2022-08-01T11:23:17;2.33;;;1.65;;
60354;SDS011;46198;51.464;-0.066;2022-08-01T11:29:17;2.83;;;1.80;;
60354;SDS011;46198;51.464;-0.066;2022-08-01T11:31:48;2.22;;;1.80;;
60354;SDS011;46198;51.464;-0.066;2022-08-01T11:36:48;1.60;;;1.50;;
60354;SDS011;46198;51.464;-0.066;2022-08-01T11:39:25;1.98;;;1.58;;
60354;SDS011;46198;51.464;-0.066;2022-08-01T11:41:55;3.70;;;1.70;;
60354;SDS011;46198;51.464;-0.066;2022-08-01T11:44:50;4.13;;;1.70;;
60354;SDS011;46198;51.464;-0.066;2022-08-01T11:47:42;3.95;;;1.80;;
60354;SDS011;46198;51.464;-0.066;2022-08-01T11:50:32;2.45;;;2.03;;
60354;SDS011;46198;51.464;-0.066;2022-08-01T11:53:05;2.95;;;1.70;;
60354;SDS011;46198;51.464;-0.066;2022-08-01T11:55:36;5.25;;;2.15;;
60354;SDS011;46198;51.464;-0.066;2022-08-01T11:58:20;2.15;;;1.65;;
60354;SDS011;46198;51.464;-0.066;2022-08-01T12:00:59;3.88;;;1.65;;
60354;SDS011;46198;51.464;-0.066;2022-08-01T12:03:37;5.00;;;1.80;;
60354;SDS011;46198;51.464;-0.066;2022-08-01T12:06:11;4.30;;;1.70;;
60354;SDS011;46198;51.464;-0.066;2022-08-01T12:08:43;3.15;;;1.80;;
60354;SDS011;46198;51.464;-0.066;2022-08-01T12:11:18;4.88;;;1.75;;
60354;SDS011;46198;51.464;-0.066;2022-08-01T12:13:47;2.28;;;1.55;;
60354;SDS011;46198;51.464;-0.066;2022-08-01T12:16:18;2.33;;;1.65;;
60354;SDS011;46198;51.464;-0.066;2022-08-01T12:19:03;3.55;;;1.60;;
60354;SDS011;46198;51.464;-0.066;2022-08-01T12:25:27;2.88;;;1.52;;
60354;SDS011;46198;51.464;-0.066;2022-08-01T12:30:31;2.15;;;1.30;;
60354;SDS011;46198;51.464;-0.066;2022-08-01T12:33:02;2.80;;;1.70;;
60354;SDS011;46198;51.464;-0.066;2022-08-01T12:35:33;3.03;;;1.48;;
60354;SDS011;46198;51.464;-0.066;2022-08-01T12:38:06;3.55;;;1.60;;
60354;SDS011;46198;51.464;-0.066;2022-08-01T12:40:44;2.65;;;1.35;;
60354;SDS011;46198;51.464;-0.066;2022-08-01T12:43:19;2.55;;;1.63;;
60354;SDS011;46198;51.464;-0.066;2022-08-01T12:45:55;2.80;;;1.48;;
60354;SDS011;46198;51.464;-0.066;2022-08-01T12:48:26;3.40;;;1.67;;
60354;SDS011;46198;51.464;-0.066;2022-08-01T12:50:55;2.75;;;1.67;;
60354;SDS011;46198;51.464;-0.066;2022-08-01T12:53:28;3.42;;;1.70;;
60354;SDS011;46198;51.464;-0.066;2022-08-01T12:56:08;3.10;;;1.80;;
60354;SDS011;46198;51.464;-0.066;2022-08-01T12:58:38;2.75;;;1.80;;
60354;SDS011;46198;51.464;-0.066;2022-08-01T13:01:07;3.47;;;2.15;;
60354;SDS011;46198;51.464;-0.066;2022-08-01T13:03:38;4.32;;;1.80;;
60354;SDS011;46198;51.464;-0.066;2022-08-01T13:06:10;3.22;;;1.63;;
60354;SDS011;46198;51.464;-0.066;2022-08-01T13:08:43;1.95;;;1.77;;
60354;SDS011;46198;51.464;-0.066;2022-08-01T13:11:14;4.55;;;2.05;;
60354;SDS011;46198;51.464;-0.066;2022-08-01T13:13:45;3.42;;;1.75;;
60354;SDS011;46198;51.464;-0.066;2022-08-01T13:16:15;6.07;;;1.85;;
60354;SDS011;46198;51.464;-0.066;2022-08-01T13:19:00;5.60;;;1.80;;
60354;SDS011;46198;51.464;-0.066;2022-08-01T13:21:29;2.42;;;1.95;;
60354;SDS011;46198;51.464;-0.066;2022-08-01T13:24:23;1.88;;;1.70;;
60354;SDS011;46198;51.464;-0.066;2022-08-01T13:30:21;2.00;;;1.83;;
60354;SDS011;46198;51.464;-0.066;2022-08-01T13:32:56;2.13;;;1.80;;
60354;SDS011;46198;51.464;-0.066;2022-08-01T13:35:25;3.60;;;2.20;;
60354;SDS011;46198;51.464;-0.066;2022-08-01T13:37:54;5.00;;;3.70;;
60354;SDS011;46198;51.464;-0.066;2022-08-01T13:40:23;2.35;;;2.15;;
60354;SDS011;46198;51.464;-0.066;2022-08-01T13:42:53;2.38;;;1.70;;
60354;SDS011;46198;51.464;-0.066;2022-08-01T13:45:24;2.15;;;1.95;;
60354;SDS011;46198;51.464;-0.066;2022-08-01T13:47:53;2.10;;;1.90;;
60354;SDS011;46198;51.464;-0.066;2022-08-01T13:54:00;2.40;;;1.65;;
60354;SDS011;46198;51.464;-0.066;2022-08-01T13:56:29;2.63;;;1.95;;
60354;SDS011;46198;51.464;-0.066;2022-08-01T13:58:58;2.92;;;2.72;;
60354;SDS011;46198;51.464;-0.066;2022-08-01T14:01:27;2.17;;;2.08;;
60354;SDS011;46198;51.464;-0.066;2022-08-01T14:04:00;2.55;;;2.22;;
60354;SDS011;46198;51.464;-0.066;2022-08-01T14:06:30;2.42;;;2.22;;
60354;SDS011;46198;51.464;-0.066;2022-08-01T14:08:58;2.30;;;2.10;;
60354;SDS011;46198;51.464;-0.066;2022-08-01T14:11:27;4.13;;;2.25;;
60354;SDS011;46198;51.464;-0.066;2022-08-01T14:14:02;2.47;;;2.28;;
60354;SDS011;46198;51.464;-0.066;2022-08-01T14:16:35;3.72;;;2.10;;
60354;SDS011;46198;51.464;-0.066;2022-08-01T14:19:06;3.35;;;2.03;;
60354;SDS011;46198;51.464;-0.066;2022-08-01T14:21:34;4.75;;;2.00;;
60354;SDS011;46198;51.464;-0.066;2022-08-01T14:24:03;2.97;;;2.03;;
60354;SDS011;46198;51.464;-0.066;2022-08-01T14:26:33;3.38;;;1.67;;
60354;SDS011;46198;51.464;-0.066;2022-08-01T14:29:02;3.15;;;1.83;;
60354;SDS011;46198;51.464;-0.066;2022-08-01T14:31:30;2.15;;;1.95;;
60354;SDS011;46198;51.464;-0.066;2022-08-01T14:34:01;2.72;;;1.77;;
60354;SDS011;46198;51.464;-0.066;2022-08-01T14:36:30;1.80;;;1.70;;
60354;SDS011;46198;51.464;-0.066;2022-08-01T14:39:04;3.22;;;1.98;;
60354;SDS011;46198;51.464;-0.066;2022-08-01T14:41:40;5.13;;;3.22;;
60354;SDS011;46198;51.464;-0.066;2022-08-01T14:44:11;2.13;;;1.90;;
60354;SDS011;46198;51.464;-0.066;2022-08-01T14:46:39;6.10;;;1.80;;
60354;SDS011;46198;51.464;-0.066;2022-08-01T14:49:26;1.70;;;1.60;;
60354;SDS011;46198;51.464;-0.066;2022-08-01T14:51:59;2.42;;;1.70;;
60354;SDS011;46198;51.464;-0.066;2022-08-01T15:00:45;2.65;;;1.75;;
60354;SDS011;46198;51.464;-0.066;2022-08-01T15:03:14;2.65;;;1.92;;
60354;SDS011;46198;51.464;-0.066;2022-08-01T15:05:44;3.00;;;1.80;;
60354;SDS011;46198;51.464;-0.066;2022-08-01T15:08:12;3.22;;;1.85;;
60354;SDS011;46198;51.464;-0.066;2022-08-01T15:10:40;3.15;;;1.40;;
60354;SDS011;46198;51.464;-0.066;2022-08-01T15:15:59;3.50;;;1.67;;
60354;SDS011;46198;51.464;-0.066;2022-08-01T15:18:28;2.88;;;1.70;;
60354;SDS011;46198;51.464;-0.066;2022-08-01T15:21:01;2.53;;;1.65;;
60354;SDS011;46198;51.464;-0.066;2022-08-01T15:23:29;2.33;;;1.45;;
60354;SDS011;46198;51.464;-0.066;2022-08-01T15:25:58;1.52;;;1.42;;
60354;SDS011;46198;51.464;-0.066;2022-08-01T15:28:26;2.40;;;1.85;;
60354;SDS011;46198;51.464;-0.066;2022-08-01T15:30:56;2.90;;;1.90;;
60354;SDS011;46198;51.464;-0.066;2022-08-01T15:33:25;1.73;;;1.60;;
60354;SDS011;46198;51.464;-0.066;2022-08-01T15:35:53;1.85;;;1.67;;
60354;SDS011;46198;51.464;-0.066;2022-08-01T15:38:24;1.77;;;1.67;;
60354;SDS011;46198;51.464;-0.066;2022-08-01T15:40:52;2.35;;;1.83;;
60354;SDS011;46198;51.464;-0.066;2022-08-01T15:43:20;2.38;;;1.65;;